sensor_id;sensor_type;location;lat;lon;timestamp;temperature;humidity
10051;DHT22;5065;46.942;7.432;2022-08-19T00:02:05;20.30;99.90
10051;DHT22;5065;46.942;7.432;2022-08-19T00:04:34;20.30;99.90
10051;DHT22;5065;46.942;7.432;2022-08-19T00:07:02;20.30;99.90
10051;DHT22;5065;46.942;7.432;2022-08-19T00:09:29;20.30;99.90
10051;DHT22;5065;46.942;7.432;2022-08-19T00:11:57;20.40;99.90
10051;DHT22;5065;46.942;7.432;2022-08-19T00:14:26;20.40;99.90
10051;DHT22;5065;46.942;7.432;2022-08-19T00:16:54;20.30;99.90
10051;DHT22;5065;46.942;7.432;2022-08-19T00:19:23;20.40;99.90
10051;DHT22;5065;46.942;7.432;2022-08-19T00:21:51;20.30;99.90
10051;DHT22;5065;46.942;7.432;2022-08-19T00:24:19;20.40;99.90
10051;DHT22;5065;46.942;7.432;2022-08-19T00:26:46;20.30;99.90
10051;DHT22;5065;46.942;7.432;2022-08-19T00:29:14;20.30;99.90
10051;DHT22;5065;46.942;7.432;2022-08-19T00:31:42;20.20;99.90
10051;DHT22;5065;46.942;7.432;2022-08-19T00:34:09;20.20;99.90
10051;DHT22;5065;46.942;7.432;2022-08-19T00:36:38;20.20;99.90
10051;DHT22;5065;46.942;7.432;2022-08-19T00:39:06;20.10;99.90
10051;DHT22;5065;46.942;7.432;2022-08-19T00:41:33;20.10;99.90
10051;DHT22;5065;46.942;7.432;2022-08-19T00:44:05;20.10;99.90
10051;DHT22;5065;46.942;7.432;2022-08-19T00:46:33;20.10;99.90
10051;DHT22;5065;46.942;7.432;2022-08-19T00:49:06;20.00;99.90
10051;DHT22;5065;46.942;7.432;2022-08-19T00:51:34;19.80;99.90
10051;DHT22;5065;46.942;7.432;2022-08-19T00:54:04;19.70;99.90
10051;DHT22;5065;46.942;7.432;2022-08-19T00:56:31;19.80;99.90
10051;DHT22;5065;46.942;7.432;2022-08-19T00:58:59;19.80;99.90
10051;DHT22;5065;46.942;7.432;2022-08-19T01:01:28;19.80;99.90
10051;DHT22;5065;46.942;7.432;2022-08-19T01:03:55;19.70;99.90
10051;DHT22;5065;46.942;7.432;2022-08-19T01:06:23;19.70;99.90
10051;DHT22;5065;46.942;7.432;2022-08-19T01:08:50;19.70;99.90
10051;DHT22;5065;46.942;7.432;2022-08-19T01:11:18;19.70;99.90
10051;DHT22;5065;46.942;7.432;2022-08-19T01:13:46;19.70;99.90
10051;DHT22;5065;46.942;7.432;2022-08-19T01:16:14;19.70;99.90
10051;DHT22;5065;46.942;7.432;2022-08-19T01:18:42;19.60;99.90
10051;DHT22;5065;46.942;7.432;2022-08-19T01:21:12;19.60;99.90
10051;DHT22;5065;46.942;7.432;2022-08-19T01:23:45;19.60;99.90
10051;DHT22;5065;46.942;7.432;2022-08-19T01:26:16;19.60;99.90
10051;DHT22;5065;46.942;7.432;2022-08-19T01:28:45;19.60;99.90
10051;DHT22;5065;46.942;7.432;2022-08-19T01:31:16;19.60;99.90
10051;DHT22;5065;46.942;7.432;2022-08-19T01:33:44;19.60;99.90
10051;DHT22;5065;46.942;7.432;2022-08-19T01:36:15;19.60;99.90
10051;DHT22;5065;46.942;7.432;2022-08-19T01:38:45;19.60;99.90
10051;DHT22;5065;46.942;7.432;2022-08-19T01:41:12;19.60;99.90
10051;DHT22;5065;46.942;7.432;2022-08-19T01:43:39;19.60;99.90
10051;DHT22;5065;46.942;7.432;2022-08-19T01:46:07;19.60;99.90
10051;DHT22;5065;46.942;7.432;2022-08-19T01:48:36;19.60;99.90
10051;DHT22;5065;46.942;7.432;2022-08-19T01:51:04;19.60;99.90
10051;DHT22;5065;46.942;7.432;2022-08-19T01:53:31;19.60;99.90
10051;DHT22;5065;46.942;7.432;2022-08-19T01:56:00;19.60;99.90
10051;DHT22;5065;46.942;7.432;2022-08-19T01:58:32;19.70;99.90
10051;DHT22;5065;46.942;7.432;2022-08-19T02:01:02;19.70;99.90
10051;DHT22;5065;46.942;7.432;2022-08-19T02:03:29;19.70;99.90
10051;DHT22;5065;46.942;7.432;2022-08-19T02:05:59;19.70;99.90
10051;DHT22;5065;46.942;7.432;2022-08-19T02:08:29;19.70;99.90
10051;DHT22;5065;46.942;7.432;2022-08-19T02:10:56;19.70;99.90
10051;DHT22;5065;46.942;7.432;2022-08-19T02:13:25;19.70;99.90
10051;DHT22;5065;46.942;7.432;2022-08-19T02:15:52;19.70;99.90
10051;DHT22;5065;46.942;7.432;2022-08-19T02:18:20;19.70;99.90
10051;DHT22;5065;46.942;7.432;2022-08-19T02:20:47;19.70;99.90
10051;DHT22;5065;46.942;7.432;2022-08-19T02:23:15;19.80;99.90
10051;DHT22;5065;46.942;7.432;2022-08-19T02:25:43;19.80;99.90
10051;DHT22;5065;46.942;7.432;2022-08-19T02:28:11;19.80;99.90
10051;DHT22;5065;46.942;7.432;2022-08-19T02:30:40;19.80;99.90
10051;DHT22;5065;46.942;7.432;2022-08-19T02:33:08;19.70;99.90
10051;DHT22;5065;46.942;7.432;2022-08-19T02:35:35;19.80;99.90
10051;DHT22;5065;46.942;7.432;2022-08-19T02:38:02;19.80;99.90
10051;DHT22;5065;46.942;7.432;2022-08-19T02:40:50;19.80;99.90
10051;DHT22;5065;46.942;7.432;2022-08-19T02:43:19;19.80;99.90
10051;DHT22;5065;46.942;7.432;2022-08-19T02:45:49;19.90;99.90
10051;DHT22;5065;46.942;7.432;2022-08-19T02:48:18;19.90;99.90
10051;DHT22;5065;46.942;7.432;2022-08-19T02:50:46;19.80;99.90
10051;DHT22;5065;46.942;7.432;2022-08-19T02:53:14;19.90;99.90
10051;DHT22;5065;46.942;7.432;2022-08-19T02:55:45;19.90;99.90
10051;DHT22;5065;46.942;7.432;2022-08-19T02:58:14;19.90;99.90
10051;DHT22;5065;46.942;7.432;2022-08-19T03:00:42;19.90;99.90
10051;DHT22;5065;46.942;7.432;2022-08-19T03:03:11;19.90;99.90
10051;DHT22;5065;46.942;7.432;2022-08-19T03:05:39;19.90;99.90
10051;DHT22;5065;46.942;7.432;2022-08-19T03:08:06;19.90;99.90
10051;DHT22;5065;46.942;7.432;2022-08-19T03:10:40;19.90;99.90
10051;DHT22;5065;46.942;7.432;2022-08-19T03:13:10;19.90;99.90
10051;DHT22;5065;46.942;7.432;2022-08-19T03:15:40;19.90;99.90
10051;DHT22;5065;46.942;7.432;2022-08-19T03:18:07;19.90;99.90
10051;DHT22;5065;46.942;7.432;2022-08-19T03:20:41;19.90;99.90
10051;DHT22;5065;46.942;7.432;2022-08-19T03:23:09;19.90;99.90
10051;DHT22;5065;46.942;7.432;2022-08-19T03:25:39;19.90;99.90
10051;DHT22;5065;46.942;7.432;2022-08-19T03:28:07;19.90;99.90
10051;DHT22;5065;46.942;7.432;2022-08-19T03:30:34;19.90;99.90
10051;DHT22;5065;46.942;7.432;2022-08-19T03:33:02;19.80;99.90
10051;DHT22;5065;46.942;7.432;2022-08-19T03:35:29;19.90;99.90
10051;DHT22;5065;46.942;7.432;2022-08-19T03:37:58;19.90;99.90
10051;DHT22;5065;46.942;7.432;2022-08-19T03:40:25;19.90;99.90
10051;DHT22;5065;46.942;7.432;2022-08-19T03:42:53;19.80;99.90
10051;DHT22;5065;46.942;7.432;2022-08-19T03:45:20;19.90;99.90
10051;DHT22;5065;46.942;7.432;2022-08-19T03:47:47;19.90;99.90
10051;DHT22;5065;46.942;7.432;2022-08-19T03:50:15;19.90;99.90
10051;DHT22;5065;46.942;7.432;2022-08-19T03:52:42;19.90;99.90
10051;DHT22;5065;46.942;7.432;2022-08-19T03:55:16;19.90;99.90
10051;DHT22;5065;46.942;7.432;2022-08-19T03:57:43;19.90;99.90
10051;DHT22;5065;46.942;7.432;2022-08-19T04:00:12;19.90;99.90
10051;DHT22;5065;46.942;7.432;2022-08-19T04:02:40;19.90;99.90
10051;DHT22;5065;46.942;7.432;2022-08-19T04:05:07;19.90;99.90
10051;DHT22;5065;46.942;7.432;2022-08-19T04:07:37;19.90;99.90
10051;DHT22;5065;46.942;7.432;2022-08-19T04:10:05;19.90;99.90
10051;DHT22;5065;46.942;7.432;2022-08-19T04:12:33;19.90;99.90
10051;DHT22;5065;46.942;7.432;2022-08-19T04:15:01;19.90;99.90
10051;DHT22;5065;46.942;7.432;2022-08-19T04:17:28;19.90;99.90
10051;DHT22;5065;46.942;7.432;2022-08-19T04:19:55;19.90;99.90
10051;DHT22;5065;46.942;7.432;2022-08-19T04:22:22;19.90;99.90
10051;DHT22;5065;46.942;7.432;2022-08-19T04:24:49;19.90;99.90
10051;DHT22;5065;46.942;7.432;2022-08-19T04:27:17;19.90;99.90
10051;DHT22;5065;46.942;7.432;2022-08-19T04:29:45;19.90;99.90
10051;DHT22;5065;46.942;7.432;2022-08-19T04:32:13;19.90;99.90
10051;DHT22;5065;46.942;7.432;2022-08-19T04:34:41;19.90;99.90
10051;DHT22;5065;46.942;7.432;2022-08-19T04:37:09;19.80;99.90
10051;DHT22;5065;46.942;7.432;2022-08-19T04:39:37;19.80;99.90
10051;DHT22;5065;46.942;7.432;2022-08-19T04:42:22;19.90;99.90
10051;DHT22;5065;46.942;7.432;2022-08-19T04:45:12;19.80;99.90
10051;DHT22;5065;46.942;7.432;2022-08-19T04:47:40;19.80;99.90
10051;DHT22;5065;46.942;7.432;2022-08-19T04:50:08;19.80;99.90
10051;DHT22;5065;46.942;7.432;2022-08-19T04:52:37;19.80;99.90
10051;DHT22;5065;46.942;7.432;2022-08-19T04:55:09;19.80;99.90
10051;DHT22;5065;46.942;7.432;2022-08-19T04:57:37;19.80;99.90
10051;DHT22;5065;46.942;7.432;2022-08-19T05:00:09;19.80;99.90
10051;DHT22;5065;46.942;7.432;2022-08-19T05:02:37;19.80;99.90
10051;DHT22;5065;46.942;7.432;2022-08-19T05:05:07;19.80;99.90
10051;DHT22;5065;46.942;7.432;2022-08-19T05:07:35;19.80;99.90
10051;DHT22;5065;46.942;7.432;2022-08-19T05:10:05;19.80;99.90
10051;DHT22;5065;46.942;7.432;2022-08-19T05:12:33;19.80;99.90
10051;DHT22;5065;46.942;7.432;2022-08-19T05:15:02;19.80;99.90
10051;DHT22;5065;46.942;7.432;2022-08-19T05:17:31;19.80;99.90
10051;DHT22;5065;46.942;7.432;2022-08-19T05:19:59;19.80;99.90
10051;DHT22;5065;46.942;7.432;2022-08-19T05:22:45;19.80;99.90
10051;DHT22;5065;46.942;7.432;2022-08-19T05:25:21;19.80;99.90
10051;DHT22;5065;46.942;7.432;2022-08-19T05:27:50;19.80;99.90
10051;DHT22;5065;46.942;7.432;2022-08-19T05:30:17;19.80;99.90
10051;DHT22;5065;46.942;7.432;2022-08-19T05:32:46;19.80;99.90
10051;DHT22;5065;46.942;7.432;2022-08-19T05:35:13;19.90;99.90
10051;DHT22;5065;46.942;7.432;2022-08-19T05:37:41;19.80;99.90
10051;DHT22;5065;46.942;7.432;2022-08-19T05:40:09;19.80;99.90
10051;DHT22;5065;46.942;7.432;2022-08-19T05:42:36;19.70;99.90
10051;DHT22;5065;46.942;7.432;2022-08-19T05:45:04;19.80;99.90
10051;DHT22;5065;46.942;7.432;2022-08-19T05:47:32;19.70;99.90
10051;DHT22;5065;46.942;7.432;2022-08-19T05:50:00;19.70;99.90
10051;DHT22;5065;46.942;7.432;2022-08-19T05:52:28;19.60;99.90
10051;DHT22;5065;46.942;7.432;2022-08-19T05:54:55;19.60;99.90
10051;DHT22;5065;46.942;7.432;2022-08-19T05:57:23;19.60;99.90
10051;DHT22;5065;46.942;7.432;2022-08-19T05:59:50;19.60;99.90
10051;DHT22;5065;46.942;7.432;2022-08-19T06:02:19;19.60;99.90
10051;DHT22;5065;46.942;7.432;2022-08-19T06:04:46;19.60;99.90
10051;DHT22;5065;46.942;7.432;2022-08-19T06:07:15;19.60;99.90
10051;DHT22;5065;46.942;7.432;2022-08-19T06:09:42;19.60;99.90
10051;DHT22;5065;46.942;7.432;2022-08-19T06:12:09;19.60;99.90
10051;DHT22;5065;46.942;7.432;2022-08-19T06:14:37;19.60;99.90
10051;DHT22;5065;46.942;7.432;2022-08-19T06:17:04;19.60;99.90
10051;DHT22;5065;46.942;7.432;2022-08-19T06:19:31;19.70;99.90
10051;DHT22;5065;46.942;7.432;2022-08-19T06:21:59;19.70;99.90
10051;DHT22;5065;46.942;7.432;2022-08-19T06:24:29;19.70;99.90
10051;DHT22;5065;46.942;7.432;2022-08-19T06:26:58;19.70;99.90
10051;DHT22;5065;46.942;7.432;2022-08-19T06:29:27;19.70;99.90
10051;DHT22;5065;46.942;7.432;2022-08-19T06:31:57;19.70;99.90
10051;DHT22;5065;46.942;7.432;2022-08-19T06:34:25;19.70;99.90
10051;DHT22;5065;46.942;7.432;2022-08-19T06:36:54;19.70;99.90
10051;DHT22;5065;46.942;7.432;2022-08-19T06:39:24;19.70;99.90
10051;DHT22;5065;46.942;7.432;2022-08-19T06:41:55;19.80;99.90
10051;DHT22;5065;46.942;7.432;2022-08-19T06:44:26;19.80;99.90
10051;DHT22;5065;46.942;7.432;2022-08-19T06:46:54;19.80;99.90
10051;DHT22;5065;46.942;7.432;2022-08-19T06:49:22;19.80;99.90
10051;DHT22;5065;46.942;7.432;2022-08-19T06:51:50;19.80;99.90
10051;DHT22;5065;46.942;7.432;2022-08-19T06:54:18;19.80;99.90
10051;DHT22;5065;46.942;7.432;2022-08-19T06:56:45;19.80;99.90
10051;DHT22;5065;46.942;7.432;2022-08-19T06:59:16;19.80;99.90
10051;DHT22;5065;46.942;7.432;2022-08-19T07:01:47;19.70;99.90
10051;DHT22;5065;46.942;7.432;2022-08-19T07:04:17;19.70;99.90
10051;DHT22;5065;46.942;7.432;2022-08-19T07:06:47;19.70;99.90
10051;DHT22;5065;46.942;7.432;2022-08-19T07:09:16;19.70;99.90
10051;DHT22;5065;46.942;7.432;2022-08-19T07:11:45;19.70;99.90
10051;DHT22;5065;46.942;7.432;2022-08-19T07:14:15;19.70;99.90
10051;DHT22;5065;46.942;7.432;2022-08-19T07:16:43;19.70;99.90
10051;DHT22;5065;46.942;7.432;2022-08-19T07:19:11;19.60;99.90
10051;DHT22;5065;46.942;7.432;2022-08-19T07:21:40;19.60;99.90
10051;DHT22;5065;46.942;7.432;2022-08-19T07:24:08;19.60;99.90
10051;DHT22;5065;46.942;7.432;2022-08-19T07:26:39;19.60;99.90
10051;DHT22;5065;46.942;7.432;2022-08-19T07:29:07;19.60;99.90
10051;DHT22;5065;46.942;7.432;2022-08-19T07:31:36;19.60;99.90
10051;DHT22;5065;46.942;7.432;2022-08-19T07:34:04;19.60;99.90
10051;DHT22;5065;46.942;7.432;2022-08-19T07:36:34;19.50;99.90
10051;DHT22;5065;46.942;7.432;2022-08-19T07:39:06;19.60;99.90
10051;DHT22;5065;46.942;7.432;2022-08-19T07:41:34;19.60;99.90
10051;DHT22;5065;46.942;7.432;2022-08-19T07:44:04;19.60;99.90
10051;DHT22;5065;46.942;7.432;2022-08-19T07:46:34;19.60;99.90
10051;DHT22;5065;46.942;7.432;2022-08-19T07:49:05;19.60;99.90
10051;DHT22;5065;46.942;7.432;2022-08-19T07:51:33;19.60;99.90
10051;DHT22;5065;46.942;7.432;2022-08-19T07:54:00;19.60;99.90
10051;DHT22;5065;46.942;7.432;2022-08-19T07:56:27;19.60;99.90
10051;DHT22;5065;46.942;7.432;2022-08-19T07:58:55;19.60;99.90
10051;DHT22;5065;46.942;7.432;2022-08-19T08:01:24;19.60;99.90
10051;DHT22;5065;46.942;7.432;2022-08-19T08:03:52;19.60;99.90
10051;DHT22;5065;46.942;7.432;2022-08-19T08:06:39;19.60;99.90
10051;DHT22;5065;46.942;7.432;2022-08-19T08:09:26;19.60;99.90
10051;DHT22;5065;46.942;7.432;2022-08-19T08:11:56;19.60;99.90
10051;DHT22;5065;46.942;7.432;2022-08-19T08:14:27;19.50;99.90
10051;DHT22;5065;46.942;7.432;2022-08-19T08:16:54;19.50;99.90
10051;DHT22;5065;46.942;7.432;2022-08-19T08:19:24;19.60;99.90
10051;DHT22;5065;46.942;7.432;2022-08-19T08:21:53;19.50;99.90
10051;DHT22;5065;46.942;7.432;2022-08-19T08:24:21;19.50;99.90
10051;DHT22;5065;46.942;7.432;2022-08-19T08:26:47;19.50;99.90
10051;DHT22;5065;46.942;7.432;2022-08-19T08:29:14;19.60;99.90
10051;DHT22;5065;46.942;7.432;2022-08-19T08:31:43;19.60;99.90
10051;DHT22;5065;46.942;7.432;2022-08-19T08:34:11;19.60;99.90
10051;DHT22;5065;46.942;7.432;2022-08-19T08:36:41;19.70;99.90
10051;DHT22;5065;46.942;7.432;2022-08-19T08:39:14;19.70;99.90
10051;DHT22;5065;46.942;7.432;2022-08-19T08:41:47;19.70;99.90
10051;DHT22;5065;46.942;7.432;2022-08-19T08:44:20;19.70;99.90
10051;DHT22;5065;46.942;7.432;2022-08-19T08:46:50;19.80;99.90
10051;DHT22;5065;46.942;7.432;2022-08-19T08:49:31;19.80;99.90
10051;DHT22;5065;46.942;7.432;2022-08-19T08:52:04;19.80;99.90
10051;DHT22;5065;46.942;7.432;2022-08-19T08:54:37;19.90;99.90
10051;DHT22;5065;46.942;7.432;2022-08-19T08:57:07;19.80;99.90
10051;DHT22;5065;46.942;7.432;2022-08-19T08:59:39;19.90;99.90
10051;DHT22;5065;46.942;7.432;2022-08-19T09:02:07;19.90;99.90
10051;DHT22;5065;46.942;7.432;2022-08-19T09:04:35;19.90;99.90
10051;DHT22;5065;46.942;7.432;2022-08-19T09:07:18;19.90;99.90
10051;DHT22;5065;46.942;7.432;2022-08-19T09:09:51;19.90;99.90
10051;DHT22;5065;46.942;7.432;2022-08-19T09:12:23;20.00;99.90
10051;DHT22;5065;46.942;7.432;2022-08-19T09:14:57;20.00;99.90
10051;DHT22;5065;46.942;7.432;2022-08-19T09:17:26;20.10;99.90
10051;DHT22;5065;46.942;7.432;2022-08-19T09:19:59;20.20;99.90
10051;DHT22;5065;46.942;7.432;2022-08-19T09:22:30;20.20;99.90
10051;DHT22;5065;46.942;7.432;2022-08-19T09:24:59;20.20;99.90
10051;DHT22;5065;46.942;7.432;2022-08-19T09:27:28;20.30;99.90
10051;DHT22;5065;46.942;7.432;2022-08-19T09:29:55;20.30;99.90
10051;DHT22;5065;46.942;7.432;2022-08-19T09:32:22;20.20;99.90
10051;DHT22;5065;46.942;7.432;2022-08-19T09:34:50;20.30;99.90
10051;DHT22;5065;46.942;7.432;2022-08-19T09:37:20;20.20;99.90
10051;DHT22;5065;46.942;7.432;2022-08-19T09:39:48;20.20;99.90
10051;DHT22;5065;46.942;7.432;2022-08-19T09:42:16;20.10;99.90
10051;DHT22;5065;46.942;7.432;2022-08-19T09:44:44;20.00;99.90
10051;DHT22;5065;46.942;7.432;2022-08-19T09:47:12;19.90;99.90
10051;DHT22;5065;46.942;7.432;2022-08-19T09:49:41;20.00;99.90
10051;DHT22;5065;46.942;7.432;2022-08-19T09:52:09;20.00;99.90
10051;DHT22;5065;46.942;7.432;2022-08-19T09:54:37;20.00;99.90
10051;DHT22;5065;46.942;7.432;2022-08-19T09:57:04;20.00;99.90
10051;DHT22;5065;46.942;7.432;2022-08-19T09:59:33;20.00;99.90
10051;DHT22;5065;46.942;7.432;2022-08-19T10:02:00;19.90;99.90
10051;DHT22;5065;46.942;7.432;2022-08-19T10:04:28;19.80;99.90
10051;DHT22;5065;46.942;7.432;2022-08-19T10:07:09;19.80;99.90
10051;DHT22;5065;46.942;7.432;2022-08-19T10:09:36;19.90;99.90
10051;DHT22;5065;46.942;7.432;2022-08-19T10:12:04;20.00;99.90
10051;DHT22;5065;46.942;7.432;2022-08-19T10:14:33;20.10;99.90
10051;DHT22;5065;46.942;7.432;2022-08-19T10:17:01;20.20;99.90
10051;DHT22;5065;46.942;7.432;2022-08-19T10:19:29;20.30;99.90
10051;DHT22;5065;46.942;7.432;2022-08-19T10:22:03;20.50;99.90
10051;DHT22;5065;46.942;7.432;2022-08-19T10:24:31;20.60;99.90
10051;DHT22;5065;46.942;7.432;2022-08-19T10:27:00;20.60;99.90
10051;DHT22;5065;46.942;7.432;2022-08-19T10:29:29;20.60;99.90
10051;DHT22;5065;46.942;7.432;2022-08-19T10:31:59;20.60;99.90
10051;DHT22;5065;46.942;7.432;2022-08-19T10:34:28;20.70;99.90
10051;DHT22;5065;46.942;7.432;2022-08-19T10:36:56;20.70;99.90
10051;DHT22;5065;46.942;7.432;2022-08-19T10:39:25;20.70;99.90
10051;DHT22;5065;46.942;7.432;2022-08-19T10:41:55;20.70;99.90
10051;DHT22;5065;46.942;7.432;2022-08-19T10:44:23;20.80;99.90
10051;DHT22;5065;46.942;7.432;2022-08-19T10:46:50;20.80;99.90
10051;DHT22;5065;46.942;7.432;2022-08-19T10:49:19;20.70;99.90
10051;DHT22;5065;46.942;7.432;2022-08-19T10:51:46;20.60;99.90
10051;DHT22;5065;46.942;7.432;2022-08-19T10:54:32;20.60;99.90
10051;DHT22;5065;46.942;7.432;2022-08-19T10:57:17;20.60;99.90
10051;DHT22;5065;46.942;7.432;2022-08-19T10:59:44;20.50;99.90
10051;DHT22;5065;46.942;7.432;2022-08-19T11:02:12;20.60;99.90
10051;DHT22;5065;46.942;7.432;2022-08-19T11:04:41;20.60;99.90
10051;DHT22;5065;46.942;7.432;2022-08-19T11:07:08;20.60;99.90
10051;DHT22;5065;46.942;7.432;2022-08-19T11:09:38;20.60;99.90
10051;DHT22;5065;46.942;7.432;2022-08-19T11:12:07;20.70;99.90
10051;DHT22;5065;46.942;7.432;2022-08-19T11:14:35;20.70;99.90
10051;DHT22;5065;46.942;7.432;2022-08-19T11:17:04;20.80;99.90
10051;DHT22;5065;46.942;7.432;2022-08-19T11:19:32;20.80;99.90
10051;DHT22;5065;46.942;7.432;2022-08-19T11:22:01;20.80;99.90
10051;DHT22;5065;46.942;7.432;2022-08-19T11:24:29;20.70;99.90
10051;DHT22;5065;46.942;7.432;2022-08-19T11:27:02;20.70;99.90
10051;DHT22;5065;46.942;7.432;2022-08-19T11:29:30;20.70;99.90
10051;DHT22;5065;46.942;7.432;2022-08-19T11:32:03;20.70;99.90
10051;DHT22;5065;46.942;7.432;2022-08-19T11:34:30;20.70;99.90
10051;DHT22;5065;46.942;7.432;2022-08-19T11:36:57;20.70;99.90
10051;DHT22;5065;46.942;7.432;2022-08-19T11:39:28;20.70;99.90
10051;DHT22;5065;46.942;7.432;2022-08-19T11:41:57;20.70;99.90
10051;DHT22;5065;46.942;7.432;2022-08-19T11:44:25;20.60;99.90
10051;DHT22;5065;46.942;7.432;2022-08-19T11:46:53;20.60;99.90
10051;DHT22;5065;46.942;7.432;2022-08-19T11:49:21;20.50;99.90
10051;DHT22;5065;46.942;7.432;2022-08-19T11:51:48;20.50;99.90
10051;DHT22;5065;46.942;7.432;2022-08-19T11:54:17;20.40;99.90
10051;DHT22;5065;46.942;7.432;2022-08-19T11:56:46;20.40;99.90
10051;DHT22;5065;46.942;7.432;2022-08-19T11:59:14;20.30;99.90
10051;DHT22;5065;46.942;7.432;2022-08-19T12:01:42;20.40;99.90
10051;DHT22;5065;46.942;7.432;2022-08-19T12:04:10;20.30;99.90
10051;DHT22;5065;46.942;7.432;2022-08-19T12:06:39;20.30;99.90
10051;DHT22;5065;46.942;7.432;2022-08-19T12:09:09;20.30;99.90
10051;DHT22;5065;46.942;7.432;2022-08-19T12:11:38;20.20;99.90
10051;DHT22;5065;46.942;7.432;2022-08-19T12:14:10;20.20;99.90
10051;DHT22;5065;46.942;7.432;2022-08-19T12:16:40;20.10;99.90
10051;DHT22;5065;46.942;7.432;2022-08-19T12:19:07;20.10;99.90
10051;DHT22;5065;46.942;7.432;2022-08-19T12:21:35;20.10;99.90
10051;DHT22;5065;46.942;7.432;2022-08-19T12:24:04;20.10;99.90
10051;DHT22;5065;46.942;7.432;2022-08-19T12:26:32;20.00;99.90
10051;DHT22;5065;46.942;7.432;2022-08-19T12:28:59;20.00;99.90
10051;DHT22;5065;46.942;7.432;2022-08-19T12:31:29;19.90;99.90
10051;DHT22;5065;46.942;7.432;2022-08-19T12:33:57;19.90;99.90
10051;DHT22;5065;46.942;7.432;2022-08-19T12:36:24;19.80;99.90
10051;DHT22;5065;46.942;7.432;2022-08-19T12:38:52;19.80;99.90
10051;DHT22;5065;46.942;7.432;2022-08-19T12:41:20;19.80;99.90
10051;DHT22;5065;46.942;7.432;2022-08-19T12:43:48;19.80;99.90
10051;DHT22;5065;46.942;7.432;2022-08-19T12:46:16;19.70;99.90
10051;DHT22;5065;46.942;7.432;2022-08-19T12:48:45;19.70;99.90
10051;DHT22;5065;46.942;7.432;2022-08-19T12:51:15;19.70;99.90
10051;DHT22;5065;46.942;7.432;2022-08-19T12:53:43;19.70;99.90
10051;DHT22;5065;46.942;7.432;2022-08-19T12:56:12;19.80;99.90
10051;DHT22;5065;46.942;7.432;2022-08-19T12:58:41;19.90;99.90
10051;DHT22;5065;46.942;7.432;2022-08-19T13:01:09;20.00;99.90
10051;DHT22;5065;46.942;7.432;2022-08-19T13:03:37;20.00;99.90
10051;DHT22;5065;46.942;7.432;2022-08-19T13:06:06;20.00;99.90
10051;DHT22;5065;46.942;7.432;2022-08-19T13:08:35;20.00;99.90
10051;DHT22;5065;46.942;7.432;2022-08-19T13:11:11;20.00;99.90
10051;DHT22;5065;46.942;7.432;2022-08-19T13:13:40;19.90;99.90
10051;DHT22;5065;46.942;7.432;2022-08-19T13:16:08;19.90;99.90
10051;DHT22;5065;46.942;7.432;2022-08-19T13:18:37;19.90;99.90
10051;DHT22;5065;46.942;7.432;2022-08-19T13:21:08;19.80;99.90
10051;DHT22;5065;46.942;7.432;2022-08-19T13:23:37;19.70;99.90
10051;DHT22;5065;46.942;7.432;2022-08-19T13:26:06;19.70;99.90
10051;DHT22;5065;46.942;7.432;2022-08-19T13:28:34;19.60;99.90
10051;DHT22;5065;46.942;7.432;2022-08-19T13:31:21;19.60;99.90
10051;DHT22;5065;46.942;7.432;2022-08-19T13:34:06;19.60;99.90
10051;DHT22;5065;46.942;7.432;2022-08-19T13:36:35;19.50;99.90
10051;DHT22;5065;46.942;7.432;2022-08-19T13:39:02;19.50;99.90
10051;DHT22;5065;46.942;7.432;2022-08-19T13:41:30;19.40;99.90
10051;DHT22;5065;46.942;7.432;2022-08-19T13:43:57;19.40;99.90
10051;DHT22;5065;46.942;7.432;2022-08-19T13:46:24;19.40;99.90
10051;DHT22;5065;46.942;7.432;2022-08-19T13:48:53;19.40;99.90
10051;DHT22;5065;46.942;7.432;2022-08-19T13:51:20;19.40;99.90
10051;DHT22;5065;46.942;7.432;2022-08-19T13:53:49;19.40;99.90
10051;DHT22;5065;46.942;7.432;2022-08-19T13:56:18;19.40;99.90
10051;DHT22;5065;46.942;7.432;2022-08-19T13:58:46;19.40;99.90
10051;DHT22;5065;46.942;7.432;2022-08-19T14:01:19;19.40;99.90
10051;DHT22;5065;46.942;7.432;2022-08-19T14:03:46;19.30;99.90
10051;DHT22;5065;46.942;7.432;2022-08-19T14:06:14;19.30;99.90
10051;DHT22;5065;46.942;7.432;2022-08-19T14:08:42;19.30;99.90
10051;DHT22;5065;46.942;7.432;2022-08-19T14:11:11;19.30;99.90
10051;DHT22;5065;46.942;7.432;2022-08-19T14:13:38;19.30;99.90
10051;DHT22;5065;46.942;7.432;2022-08-19T14:16:10;19.30;99.90
10051;DHT22;5065;46.942;7.432;2022-08-19T14:18:39;19.30;99.90
10051;DHT22;5065;46.942;7.432;2022-08-19T14:21:07;19.30;99.90
10051;DHT22;5065;46.942;7.432;2022-08-19T14:23:34;19.30;99.90
10051;DHT22;5065;46.942;7.432;2022-08-19T14:26:07;19.30;99.90
10051;DHT22;5065;46.942;7.432;2022-08-19T14:28:39;19.30;99.90
10051;DHT22;5065;46.942;7.432;2022-08-19T14:31:07;19.30;99.90
10051;DHT22;5065;46.942;7.432;2022-08-19T14:33:34;19.40;99.90
10051;DHT22;5065;46.942;7.432;2022-08-19T14:36:03;19.40;99.90
10051;DHT22;5065;46.942;7.432;2022-08-19T14:38:31;19.40;99.90
10051;DHT22;5065;46.942;7.432;2022-08-19T14:41:13;19.30;99.90
10051;DHT22;5065;46.942;7.432;2022-08-19T14:43:43;19.40;99.90
10051;DHT22;5065;46.942;7.432;2022-08-19T14:46:13;19.40;99.90
10051;DHT22;5065;46.942;7.432;2022-08-19T14:48:41;19.40;99.90
10051;DHT22;5065;46.942;7.432;2022-08-19T14:51:09;19.40;99.90
10051;DHT22;5065;46.942;7.432;2022-08-19T14:53:36;19.30;99.90
10051;DHT22;5065;46.942;7.432;2022-08-19T14:56:08;19.30;99.90
10051;DHT22;5065;46.942;7.432;2022-08-19T14:58:35;19.30;99.90
10051;DHT22;5065;46.942;7.432;2022-08-19T15:01:04;19.20;99.90
10051;DHT22;5065;46.942;7.432;2022-08-19T15:03:32;19.20;99.90
10051;DHT22;5065;46.942;7.432;2022-08-19T15:06:00;19.20;99.90
10051;DHT22;5065;46.942;7.432;2022-08-19T15:08:29;19.20;99.90
10051;DHT22;5065;46.942;7.432;2022-08-19T15:10:57;19.20;99.90
10051;DHT22;5065;46.942;7.432;2022-08-19T15:13:26;19.20;99.90
10051;DHT22;5065;46.942;7.432;2022-08-19T15:15:54;19.20;99.90
10051;DHT22;5065;46.942;7.432;2022-08-19T15:18:23;19.10;99.90
10051;DHT22;5065;46.942;7.432;2022-08-19T15:20:50;19.00;99.90
10051;DHT22;5065;46.942;7.432;2022-08-19T15:23:19;18.90;99.90
10051;DHT22;5065;46.942;7.432;2022-08-19T15:25:46;18.90;99.90
10051;DHT22;5065;46.942;7.432;2022-08-19T15:28:14;18.80;99.90
10051;DHT22;5065;46.942;7.432;2022-08-19T15:30:42;18.80;99.90
10051;DHT22;5065;46.942;7.432;2022-08-19T15:33:11;18.80;99.90
10051;DHT22;5065;46.942;7.432;2022-08-19T15:35:45;18.80;99.90
10051;DHT22;5065;46.942;7.432;2022-08-19T15:38:13;18.80;99.90
10051;DHT22;5065;46.942;7.432;2022-08-19T15:40:44;18.80;99.90
10051;DHT22;5065;46.942;7.432;2022-08-19T15:44:17;18.80;99.90
10051;DHT22;5065;46.942;7.432;2022-08-19T15:46:01;18.80;99.90
10051;DHT22;5065;46.942;7.432;2022-08-19T15:48:28;18.80;99.90
10051;DHT22;5065;46.942;7.432;2022-08-19T15:50:57;18.70;99.90
10051;DHT22;5065;46.942;7.432;2022-08-19T15:53:24;18.70;99.90
10051;DHT22;5065;46.942;7.432;2022-08-19T15:55:51;18.60;99.90
10051;DHT22;5065;46.942;7.432;2022-08-19T15:58:18;18.60;99.90